Site contains unofficial IBTrACS data. Visit the IBTrACS Website to access archived data.

1887 Hurricane NOT_NAMED (1887282N18280)


IBTrACS version v04r00. Visit IBTrACS website for data access.
Please direct all questions to the IBTrACS Q and A forum

Storm track - Intensity - Wind Radii - Intensity Data - Source Data - All data

Summary Information

Storm ID 1887282N18280
Start Oct 9 06Z
Landfall Oct 14 00Z
Max Intensity 100 kt (Oct 10 18Z)
End Oct 16 21Z
ATCF IDs
Track status Best track data.

Storm track plot

Map of storm track

Intensity plots

Map of storm track

Radial wind information

No radial wind information for this storm


Position and Intensity Table

BASIN ISO_TIME_________ NATURE LAT LON MLC WIND
degrees north degrees east kts
NA 1887-10-09 06:00:00 TS 17.80 -79.70 30
NA 09:00:00 TS 17.85 -79.90 35
NA 12:00:00 TS 17.90 -80.10 40
NA 15:00:00 TS 17.95 -80.30 45
NA 18:00:00 TS 18.00 -80.50 50
NA 21:00:00 TS 18.05 -80.69 55
NA 1887-10-10 00:00:00 TS 18.10 -80.90 60
NA 03:00:00 TS 18.16 -81.15 65
NA 06:00:00 TS 18.20 -81.40 70
NA 09:00:00 TS 18.20 -81.61 77
NA 12:00:00 TS 18.20 -81.80 85
NA 15:00:00 TS 18.24 -82.00 92
NA 18:00:00 NR 18.30 -82.20 100
NA 21:00:00 NR 18.36 -82.39 100
NA 1887-10-11 00:00:00 NR 18.40 -82.60 100
NA 03:00:00 NR 18.40 -82.85 100
NA 06:00:00 NR 18.40 -83.10 100
NA 09:00:00 NR 18.44 -83.30 100
NA 12:00:00 NR 18.50 -83.50 100
NA 15:00:00 NR 18.55 -83.75 100
NA 18:00:00 NR 18.60 -84.00 100
NA 21:00:00 NR 18.65 -84.21 100
NA 1887-10-12 00:00:00 NR 18.70 -84.40 100
NA 03:00:00 NR 18.76 -84.60 100
NA 06:00:00 NR 18.80 -84.80 100
NA 09:00:00 NR 18.79 -85.00 100
NA 12:00:00 NR 18.80 -85.20 100
NA 15:00:00 NR 18.88 -85.40 100
NA 18:00:00 NR 19.00 -85.60 100
NA 21:00:00 NR 19.10 -85.80 100
NA 1887-10-13 00:00:00 NR 19.20 -86.00 100
NA 03:00:00 NR 19.30 -86.20 100
NA 06:00:00 NR 19.40 -86.40 100
NA 09:00:00 NR 19.51 -86.61 100
NA 12:00:00 NR 19.60 -86.80 100
NA 15:00:00 NR 19.66 -86.95 100
NA 18:00:00 NR 19.70 -87.10 100
NA 21:00:00 NR 19.75 -87.30 95
NA 1887-10-14 00:00:00 TS 19.80 -87.50 90
NA 03:00:00 TS 19.84 -87.66 85
NA 06:00:00 TS 19.90 -87.80 80
NA 09:00:00 TS 20.00 -87.95 75
NA 12:00:00 TS 20.10 -88.10 70
NA 15:00:00 TS 20.16 -88.24 67
NA 18:00:00 TS 20.20 -88.40 65
NA 21:00:00 TS 20.25 -88.60 62
NA 1887-10-15 00:00:00 TS 20.30 -88.80 60
NA 03:00:00 TS 20.35 -88.96 57
NA 06:00:00 TS 20.40 -89.10 55
NA 09:00:00 TS 20.45 -89.25 52
NA 12:00:00 TS 20.50 -89.40 50
NA 15:00:00 TS 20.55 -89.54 50
NA 18:00:00 TS 20.60 -89.70 50
NA 21:00:00 TS 20.64 -89.90 50
NA 1887-10-16 00:00:00 TS 20.70 -90.10 50
NA 03:00:00 TS 20.81 -90.27 52
NA 06:00:00 TS 21.00 -90.40 55
NA 09:00:00 TS 21.27 -90.51 57
NA 12:00:00 TS 21.60 -90.60 60
NA 15:00:00 TS 21.94 -90.71 62
NA 18:00:00 TS 22.30 -90.80 65
NA 21:00:00 TS 22.65 -90.85

Source Information

Agency Information
USA
TOKYO
CMA
HKO
NEWDELHI
REUNION
BOM
NADI
WELLINGTON
DS824
TD9636
TD9635
NEUMANN
MLC

All available IBTrACS Data

SEASON BASIN SUBBASIN ISO_TIME_________ NATURE LAT LON DIST2LAND LANDFALL IFLAG USA SSHS MLC LAT MLC LON MLC CLASS MLC WIND STORM SPEED STORM DIR
Year degrees north degrees east km km 1 degrees north degrees east kts kts degrees
1887 NA CS 1887-10-09 06:00:00 TS 17.80 -79.70 144 144 _____________O -1 17.80 -79.70 TD 30 4 285
1887 NA CS 09:00:00 TS 17.85 -79.90 162 162 _____________P -1 17.85 -79.90 TD 35 4 285
1887 NA CS 12:00:00 TS 17.90 -80.10 182 182 _____________O -1 17.90 -80.10 TS 40 4 285
1887 NA CS 15:00:00 TS 17.95 -80.30 203 202 _____________P -1 17.95 -80.30 TS 45 4 285
1887 NA CS 18:00:00 TS 18.00 -80.50 223 223 _____________O -1 18.00 -80.50 TS 50 4 285
1887 NA CS 21:00:00 TS 18.05 -80.69 244 243 _____________P -1 18.05 -80.69 TS 55 4 285
1887 NA CS 1887-10-10 00:00:00 TS 18.10 -80.90 264 264 _____________O -1 18.10 -80.90 TS 60 4 284
1887 NA CS 03:00:00 TS 18.16 -81.15 285 285 _____________P -1 18.16 -81.15 TS 65 5 282
1887 NA CS 06:00:00 TS 18.20 -81.40 316 316 _____________O -1 18.20 -81.40 HU 70 4 276
1887 NA CS 09:00:00 TS 18.20 -81.61 338 338 _____________P -1 18.20 -81.61 HU 77 4 270
1887 NA CS 12:00:00 TS 18.20 -81.80 359 357 _____________O -1 18.20 -81.80 HU 85 4 277
1887 NA CS 15:00:00 TS 18.24 -82.00 357 352 _____________P -1 18.24 -82.00 HU 92 4 285
1887 NA CS 18:00:00 NR 18.30 -82.20 352 338 _____________O -1 18.30 -82.20 MH 100 4 287
1887 NA CS 21:00:00 NR 18.36 -82.39 338 336 _____________P -1 18.36 -82.39 MH 100 4 285
1887 NA CS 1887-10-11 00:00:00 NR 18.40 -82.60 336 331 _____________O -1 18.40 -82.60 MH 100 4 276
1887 NA CS 03:00:00 NR 18.40 -82.85 326 317 _____________P -1 18.40 -82.85 MH 100 5 270
1887 NA CS 06:00:00 NR 18.40 -83.10 317 309 _____________O -1 18.40 -83.10 MH 100 4 276
1887 NA CS 09:00:00 NR 18.44 -83.30 309 309 _____________P -1 18.44 -83.30 MH 100 4 285
1887 NA CS 12:00:00 NR 18.50 -83.50 313 308 _____________O -1 18.50 -83.50 MH 100 4 284
1887 NA CS 15:00:00 NR 18.55 -83.75 319 311 _____________P -1 18.55 -83.75 MH 100 5 282
1887 NA CS 18:00:00 NR 18.60 -84.00 311 306 _____________O -1 18.60 -84.00 MH 100 4 283
1887 NA CS 21:00:00 NR 18.65 -84.21 306 306 _____________P -1 18.65 -84.21 MH 100 4 285
1887 NA CS 1887-10-12 00:00:00 NR 18.70 -84.40 314 304 _____________O -1 18.70 -84.40 MH 100 4 286
1887 NA CS 03:00:00 NR 18.76 -84.60 304 284 _____________P -1 18.76 -84.60 MH 100 4 285
1887 NA CS 06:00:00 NR 18.80 -84.80 284 263 _____________O -1 18.80 -84.80 MH 100 4 275
1887 NA CS 09:00:00 NR 18.79 -85.00 263 244 _____________P -1 18.79 -85.00 MH 100 4 270
1887 NA CS 12:00:00 NR 18.80 -85.20 244 220 _____________O -1 18.80 -85.20 MH 100 4 284
1887 NA CS 15:00:00 NR 18.88 -85.40 220 197 _____________P -1 18.88 -85.40 MH 100 4 298
1887 NA CS 18:00:00 NR 19.00 -85.60 197 173 _____________O -1 19.00 -85.60 MH 100 4 300
1887 NA CS 21:00:00 NR 19.10 -85.80 173 150 _____________P -1 19.10 -85.80 MH 100 4 298
1887 NA CS 1887-10-13 00:00:00 NR 19.20 -86.00 150 127 _____________O -1 19.20 -86.00 MH 100 4 298
1887 NA CS 03:00:00 NR 19.30 -86.20 127 105 _____________P -1 19.30 -86.20 MH 100 4 298
1887 NA CS 06:00:00 NR 19.40 -86.40 105 83 _____________O -1 19.40 -86.40 MH 100 4 298
1887 NA CS 09:00:00 NR 19.51 -86.61 83 63 _____________P -1 19.51 -86.61 MH 100 4 298
1887 NA CS 12:00:00 NR 19.60 -86.80 63 53 _____________O -1 19.60 -86.80 MH 100 4 295
1887 NA CS 15:00:00 NR 19.66 -86.95 47 38 _____________P -1 19.66 -86.95 MH 100 3 290
1887 NA CS 18:00:00 NR 19.70 -87.10 38 23 _____________O -1 19.70 -87.10 MH 100 3 286
1887 NA CS 21:00:00 NR 19.75 -87.30 20 0 _____________P -1 19.75 -87.30 MH 95 4 285
1887 NA CS 1887-10-14 00:00:00 TS 19.80 -87.50 0 0 _____________O -1 19.80 -87.50 HU 90 3 285
1887 NA NA 03:00:00 TS 19.84 -87.66 0 0 _____________P -1 19.84 -87.66 HU 85 3 290
1887 NA NA 06:00:00 TS 19.90 -87.80 0 0 _____________O -1 19.90 -87.80 HU 80 3 300
1887 NA NA 09:00:00 TS 20.00 -87.95 0 0 _____________P -1 20.00 -87.95 HU 75 3 305
1887 NA NA 12:00:00 TS 20.10 -88.10 0 0 _____________O -1 20.10 -88.10 HU 70 3 300
1887 NA NA 15:00:00 TS 20.16 -88.24 0 0 _____________P -1 20.16 -88.24 HU 67 3 290
1887 NA NA 18:00:00 TS 20.20 -88.40 0 0 _____________O -1 20.20 -88.40 HU 65 3 285
1887 NA NA 21:00:00 TS 20.25 -88.60 0 0 _____________P -1 20.25 -88.60 HU 62 4 285
1887 NA NA 1887-10-15 00:00:00 TS 20.30 -88.80 0 0 _____________O -1 20.30 -88.80 TS 60 4 287
1887 NA NA 03:00:00 TS 20.35 -88.96 0 0 _____________P -1 20.35 -88.96 TS 57 3 290
1887 NA NA 06:00:00 TS 20.40 -89.10 0 0 _____________O -1 20.40 -89.10 TS 55 3 290
1887 NA NA 09:00:00 TS 20.45 -89.25 0 0 _____________P -1 20.45 -89.25 TS 52 3 290
1887 NA NA 12:00:00 TS 20.50 -89.40 0 0 _____________O -1 20.50 -89.40 TS 50 3 290
1887 NA NA 15:00:00 TS 20.55 -89.54 0 0 _____________P -1 20.55 -89.54 TS 50 3 290
1887 NA NA 18:00:00 TS 20.60 -89.70 0 0 _____________O -1 20.60 -89.70 TS 50 3 284
1887 NA NA 21:00:00 TS 20.64 -89.90 0 0 _____________P -1 20.64 -89.90 TS 50 4 285
1887 NA NA 1887-10-16 00:00:00 TS 20.70 -90.10 0 0 _____________O -1 20.70 -90.10 TS 50 4 298
1887 NA NA 03:00:00 TS 20.81 -90.27 0 0 _____________P -1 20.81 -90.27 TS 52 4 317
1887 NA GM 06:00:00 TS 21.00 -90.40 10 10 _____________O -1 21.00 -90.40 TS 55 5 333
1887 NA GM 09:00:00 TS 21.27 -90.51 30 30 _____________P -1 21.27 -90.51 TS 57 6 343
1887 NA GM 12:00:00 TS 21.60 -90.60 63 63 _____________O -1 21.60 -90.60 TS 60 7 345
1887 NA GM 15:00:00 TS 21.94 -90.71 98 98 _____________P -1 21.95 -90.70 TS 62 7 345
1887 NA GM 18:00:00 TS 22.30 -90.80 143 143 _____________O -1 22.30 -90.80 HU 65 7 349
1887 NA GM 21:00:00 TS 22.65 -90.85 178 ______________ -1 HU 7 354